KHST

Homestead ARB Airport

Homestead, Florida, USA
TAF AMD KHST 162215Z 1622/1722 31009KT 9999 VCTS BKN035CB BKN100 QNH3003INS TEMPO 1622/1624 VRB12G18KT 4800 -TSRA BKN025CB BECMG 1623/1624 VRB06KT 9999 NSW SCT030 QNH3005INS BECMG 1715/1716 17009KT 9999 VCTS SCT025CB QNH3004INS TX32/1718Z TN25/1710Z
Issued Valid From Valid To
Jul-16 @ 22:15 UTC
(2 hours ago)
Jul-16 @ 22:00 UTC
(2 hours ago)
Jul-17 @ 22:00 UTC
(in 22 hours)
Expired Click to View Jul-16 @ 22:00 to Jul-16 @ 23:00
TAF AMD KHST 162215Z 1622/1722 31009KT 9999 VCTS BKN035CB BKN100 QNH3003INS
Wind Visibility Clouds Conditions Readings
310° at 9 knots Greater than 6 miles
  • Broken at 3,500' AGL
  • Broken at 10,000' AGL
  • Area Thunderstorm
Altimeter 30.03" Hg
Pressure 1017 hPa
Expired Click to View Jul-16 @ 22:00 to Jul-17 @ 00:00
TEMPO 1622/1624 VRB12G18KT 4800 -TSRA BKN025CB
Wind Visibility Clouds Conditions
Variable at 12 knots
 Gusting to 18 knots
21/98 miles
  • Broken at 2,500' AGL
  • Light Thunderstorm
  • Light Rain
Becoming Jul-16 @ 23:00 to Jul-17 @ 15:00
BECMG 1623/1624 VRB06KT 9999 NSW SCT030 QNH3005INS
Wind Visibility Clouds Conditions Readings
Variable at 6 knots Greater than 6 miles
  • Scattered at 3,000' AGL
Altimeter 30.06" Hg
Pressure 1018 hPa
Becoming Jul-17 @ 15:00 to Jul-17 @ 22:00
BECMG 1715/1716 17009KT 9999 VCTS SCT025CB QNH3004INS TX32/1718Z TN25/1710Z
Wind Visibility Clouds Conditions Readings
170° at 9 knots Greater than 6 miles
  • Scattered at 2,500' AGL
  • Area Thunderstorm
Altimeter 30.03" Hg
Pressure 1017 hPa
TAF AMD KHST 162215Z 1622/1722 31009KT 9999 VCTS BKN035CB BKN100 QNH3003INS TEMPO 1622/1624 VRB12G18KT 4800 -TSRA BKN025CB BECMG 1623/1624 VRB06KT 9999 NSW SCT030 QNH3005INS BECMG 1715/1716 17009KT 9999 VCTS SCT025CB QNH3004INS TX32/1718Z TN25/1710Z
Issued Jul-16 @ 22:15 UTC
(2 hours ago)
Valid From Jul-16 @ 22:00 UTC
(2 hours ago)
Valid To Jul-17 @ 22:00 UTC
(in 22 hours)
Jul-16 @ 22:00 - Jul-16 @ 23:00
Wind Visibility
310° at 9 knots Greater than 6 miles
Clouds
  • Broken at 3,500' AGL
  • Broken at 10,000' AGL
Conditions
  • Area Thunderstorm
Jul-16 @ 22:00 - Jul-17 @ 00:00
Wind Visibility
Variable at 12 knots
 Gusting to 18 knots
21/98 miles
Clouds
  • Broken at 2,500' AGL
Conditions
  • Light Thunderstorm
  • Light Rain
Becoming Jul-16 @ 23:00 - Jul-17 @ 15:00
Wind Visibility
Variable at 6 knots Greater than 6 miles
Clouds
  • Scattered at 3,000' AGL
Conditions
Becoming Jul-17 @ 15:00 - Jul-17 @ 22:00
Wind Visibility
170° at 9 knots Greater than 6 miles
Clouds
  • Scattered at 2,500' AGL
Conditions
  • Area Thunderstorm